createdAt,value
2023-04-30T00:01:42.332Z,33.00
2023-04-30T00:04:10.116Z,32.70
2023-04-30T00:06:37.887Z,32.00
2023-04-30T00:09:05.585Z,32.90
2023-04-30T00:11:33.253Z,32.00
2023-04-30T00:14:00.855Z,35.50
2023-04-30T00:16:28.461Z,34.00
2023-04-30T00:18:56.312Z,35.90
2023-04-30T00:21:23.878Z,39.00
2023-04-30T00:23:51.490Z,45.60
2023-04-30T00:26:19.097Z,51.90
2023-04-30T00:28:47.681Z,54.50
2023-04-30T00:31:15.480Z,55.00
2023-04-30T00:33:43.338Z,52.60
2023-04-30T00:36:10.939Z,49.70
2023-04-30T00:38:40.005Z,48.80
2023-04-30T00:41:07.662Z,45.70
2023-04-30T00:43:35.321Z,43.20
2023-04-30T00:46:05.388Z,43.70
2023-04-30T00:48:33.191Z,44.20
2023-04-30T00:51:03.348Z,46.00
2023-04-30T00:53:32.127Z,43.90
2023-04-30T00:55:59.746Z,43.00
2023-04-30T00:58:27.731Z,43.50
2023-04-30T01:00:55.689Z,41.10
2023-04-30T01:03:23.524Z,38.20
2023-04-30T01:05:51.377Z,40.40
2023-04-30T01:08:19.003Z,37.10
2023-04-30T01:11:24.749Z,32.80
2023-04-30T01:14:13.896Z,32.20
2023-04-30T01:16:53.033Z,32.40
2023-04-30T01:19:34.106Z,35.40
2023-04-30T01:22:04.494Z,36.70
2023-04-30T01:25:08.173Z,37.50
2023-04-30T01:28:10.191Z,37.30
2023-04-30T01:30:40.889Z,35.70
2023-04-30T01:33:09.167Z,32.10
2023-04-30T01:35:47.209Z,27.90
2023-04-30T01:38:36.561Z,26.80
2023-04-30T01:41:27.189Z,25.70
2023-04-30T01:44:18.466Z,26.20
2023-04-30T01:47:02.916Z,24.70
2023-04-30T01:49:38.952Z,21.80
2023-04-30T01:52:15.289Z,20.60
2023-04-30T01:54:52.972Z,22.10
2023-04-30T01:57:42.099Z,19.40
2023-04-30T02:00:12.071Z,19.40
2023-04-30T02:02:42.598Z,20.20
2023-04-30T02:05:10.465Z,21.10
2023-04-30T02:07:41.487Z,20.20
2023-04-30T02:10:10.341Z,20.80
2023-04-30T02:12:38.928Z,21.00
2023-04-30T02:15:07.609Z,21.60
2023-04-30T02:17:35.616Z,21.10
2023-04-30T02:20:04.541Z,21.50
2023-04-30T02:22:32.180Z,22.10
2023-04-30T02:24:59.855Z,20.80
2023-04-30T02:27:30.840Z,21.80
2023-04-30T02:29:59.115Z,22.50
2023-04-30T02:32:26.859Z,22.20
2023-04-30T02:34:54.606Z,20.50
2023-04-30T02:37:22.776Z,22.20
2023-04-30T02:39:51.275Z,22.10
2023-04-30T02:42:18.988Z,23.10
2023-04-30T02:44:46.766Z,21.80
2023-04-30T02:47:14.436Z,23.00
2023-04-30T02:49:42.215Z,22.80
2023-04-30T02:52:09.994Z,22.80
2023-04-30T02:54:37.990Z,24.60
2023-04-30T02:57:06.625Z,22.40
2023-04-30T02:59:34.308Z,23.10
2023-04-30T03:02:01.975Z,22.50
2023-04-30T03:04:29.783Z,23.10
2023-04-30T03:06:57.394Z,21.80
2023-04-30T03:09:25.005Z,20.80
2023-04-30T03:11:52.594Z,21.20
2023-04-30T03:14:20.313Z,20.90
2023-04-30T03:16:48.438Z,19.50
2023-04-30T03:19:16.167Z,19.70
2023-04-30T03:21:43.754Z,19.60
2023-04-30T03:24:11.373Z,19.90
2023-04-30T03:26:39.481Z,20.30
2023-04-30T03:29:07.231Z,18.00
2023-04-30T03:31:35.121Z,19.70
2023-04-30T03:34:02.841Z,17.90
2023-04-30T03:36:31.369Z,18.80
2023-04-30T03:38:59.056Z,19.30
2023-04-30T03:41:26.678Z,20.90
2023-04-30T03:43:54.595Z,21.00
2023-04-30T03:46:22.359Z,19.40
2023-04-30T03:48:50.234Z,18.50
2023-04-30T03:51:22.557Z,18.60
2023-04-30T03:53:50.182Z,16.90
2023-04-30T03:56:17.825Z,18.80
2023-04-30T03:58:45.443Z,18.10
2023-04-30T04:01:13.050Z,17.80
2023-04-30T04:03:40.963Z,17.20
2023-04-30T04:06:08.672Z,19.50
2023-04-30T04:08:37.518Z,18.50
2023-04-30T04:11:05.711Z,17.70
2023-04-30T04:13:33.298Z,16.50
2023-04-30T04:16:01.774Z,16.70
2023-04-30T04:18:29.872Z,17.60
2023-04-30T04:20:57.535Z,15.30
2023-04-30T04:23:25.303Z,15.10
2023-04-30T04:25:54.008Z,14.90
2023-04-30T04:28:22.310Z,15.70
2023-04-30T04:30:50.449Z,18.30
2023-04-30T04:33:19.232Z,16.10
2023-04-30T04:35:47.630Z,15.50
2023-04-30T04:38:15.341Z,14.40
2023-04-30T04:40:51.299Z,14.50
2023-04-30T04:43:20.141Z,15.10
2023-04-30T04:45:48.055Z,14.10
2023-04-30T04:48:15.921Z,15.50
2023-04-30T04:50:43.587Z,14.90
2023-04-30T04:53:11.196Z,14.70
2023-04-30T04:55:38.821Z,15.00
2023-04-30T04:58:06.757Z,13.80
2023-04-30T05:00:34.585Z,14.50
2023-04-30T05:03:02.274Z,13.30
2023-04-30T05:05:30.222Z,14.50
2023-04-30T05:07:57.903Z,13.00
2023-04-30T05:10:25.541Z,13.20
2023-04-30T05:12:53.180Z,12.60
2023-04-30T05:15:21.044Z,13.50
2023-04-30T05:17:48.694Z,11.80
2023-04-30T05:20:16.471Z,12.80
2023-04-30T05:22:44.062Z,13.00
2023-04-30T05:25:11.758Z,13.60
2023-04-30T05:27:39.426Z,12.80
2023-04-30T05:30:09.414Z,12.40
2023-04-30T05:32:37.120Z,11.60
2023-04-30T05:35:05.627Z,12.20
2023-04-30T05:37:33.262Z,12.00
2023-04-30T05:40:00.954Z,11.30
2023-04-30T05:42:28.682Z,10.90
2023-04-30T05:44:56.294Z,10.30
2023-04-30T05:47:23.898Z,10.00
2023-04-30T05:49:51.653Z,9.70
2023-04-30T05:52:19.513Z,8.50
2023-04-30T05:54:50.108Z,8.90
2023-04-30T05:57:18.844Z,8.10
2023-04-30T05:59:46.566Z,8.50
2023-04-30T06:02:14.421Z,8.30
2023-04-30T06:04:42.692Z,8.10
2023-04-30T06:07:10.450Z,7.70
2023-04-30T06:09:38.036Z,8.50
2023-04-30T06:12:05.707Z,7.90
2023-04-30T06:14:33.348Z,7.60
2023-04-30T06:17:01.137Z,7.60
2023-04-30T06:19:29.002Z,8.30
2023-04-30T06:21:56.652Z,7.80
2023-04-30T06:24:27.492Z,6.70
2023-04-30T06:26:55.136Z,6.10
2023-04-30T06:29:24.435Z,7.10
2023-04-30T06:31:52.388Z,6.00
2023-04-30T06:34:21.084Z,6.10
2023-04-30T06:36:48.764Z,6.70
2023-04-30T06:39:17.161Z,6.00
2023-04-30T06:41:44.908Z,6.10
2023-04-30T06:44:12.986Z,6.10
2023-04-30T06:46:41.071Z,5.60
2023-04-30T06:49:08.882Z,5.90
2023-04-30T06:51:36.535Z,5.60
2023-04-30T06:54:04.207Z,5.30
2023-04-30T06:56:31.820Z,5.20
2023-04-30T06:58:59.417Z,5.30
2023-04-30T07:01:27.091Z,5.30
2023-04-30T07:03:55.509Z,5.10
2023-04-30T07:06:23.726Z,5.70
2023-04-30T07:08:51.584Z,5.90
2023-04-30T07:11:19.219Z,5.20
2023-04-30T07:13:46.868Z,5.60
2023-04-30T07:16:16.791Z,4.40
2023-04-30T07:18:44.601Z,4.40
2023-04-30T07:21:12.215Z,4.50
2023-04-30T07:23:39.868Z,4.30
2023-04-30T07:26:07.595Z,3.90
2023-04-30T07:28:35.481Z,4.30
2023-04-30T07:31:03.147Z,4.40
2023-04-30T07:33:31.199Z,3.90
2023-04-30T07:35:59.081Z,4.00
2023-04-30T07:38:26.861Z,4.10
2023-04-30T07:40:54.503Z,3.60
2023-04-30T07:43:22.148Z,4.50
2023-04-30T07:45:50.895Z,3.70
2023-04-30T07:48:18.559Z,3.40
2023-04-30T07:50:48.573Z,3.70
2023-04-30T07:53:17.167Z,3.40
2023-04-30T07:55:44.870Z,3.70
2023-04-30T07:58:12.497Z,3.30
2023-04-30T08:00:40.476Z,3.50
2023-04-30T08:03:08.592Z,3.90
2023-04-30T08:05:36.565Z,3.80
2023-04-30T08:08:04.542Z,3.40
2023-04-30T08:10:32.168Z,4.00
2023-04-30T08:12:59.912Z,3.40
2023-04-30T08:15:28.792Z,3.30
2023-04-30T08:17:57.091Z,3.60
2023-04-30T08:20:24.908Z,4.20
2023-04-30T08:22:52.632Z,3.70
2023-04-30T08:25:20.603Z,3.90
2023-04-30T08:27:48.379Z,4.30
2023-04-30T08:30:16.118Z,4.00
2023-04-30T08:32:43.854Z,3.70
2023-04-30T08:35:11.584Z,3.80
2023-04-30T08:37:39.297Z,3.50
2023-04-30T08:40:09.735Z,3.40
2023-04-30T08:42:38.388Z,4.00
2023-04-30T08:45:09.169Z,3.20
2023-04-30T08:47:38.540Z,3.00
2023-04-30T08:50:07.050Z,3.00
2023-04-30T08:52:38.385Z,3.40
2023-04-30T08:55:08.155Z,3.30
2023-04-30T08:57:36.944Z,2.70
2023-04-30T09:00:07.000Z,3.60
2023-04-30T09:02:34.913Z,3.40
2023-04-30T09:05:03.242Z,2.60
2023-04-30T09:07:33.684Z,2.90
2023-04-30T09:10:01.263Z,2.70
2023-04-30T09:12:29.587Z,2.90
2023-04-30T09:15:05.461Z,2.60
2023-04-30T09:17:34.302Z,2.80
2023-04-30T09:20:09.076Z,3.10
2023-04-30T09:22:38.172Z,2.40
2023-04-30T09:25:07.150Z,2.20
2023-04-30T09:27:35.106Z,2.50
2023-04-30T09:30:03.487Z,2.80
2023-04-30T09:32:31.617Z,2.50
2023-04-30T09:34:59.307Z,2.40
2023-04-30T09:37:38.721Z,2.50
2023-04-30T09:40:07.941Z,2.40
2023-04-30T09:42:35.630Z,3.00
2023-04-30T09:45:05.164Z,2.60
2023-04-30T09:47:33.136Z,2.30
2023-04-30T09:50:00.974Z,2.50
2023-04-30T09:52:28.621Z,2.40
2023-04-30T09:54:56.282Z,2.10
2023-04-30T09:57:24.506Z,2.20
2023-04-30T09:59:53.439Z,2.60
2023-04-30T10:02:24.022Z,2.40
2023-04-30T10:04:56.332Z,2.50
2023-04-30T10:07:26.333Z,2.70
2023-04-30T10:09:58.086Z,2.70
2023-04-30T10:12:29.186Z,3.10
2023-04-30T10:15:05.976Z,2.60
2023-04-30T10:17:41.050Z,3.00
2023-04-30T10:20:10.863Z,2.40
2023-04-30T10:22:38.850Z,2.40
2023-04-30T10:25:07.134Z,2.20
2023-04-30T10:27:34.877Z,2.30
2023-04-30T10:30:02.947Z,1.60
2023-04-30T10:32:36.372Z,2.20
2023-04-30T10:35:22.705Z,2.20
2023-04-30T10:37:54.603Z,1.90
2023-04-30T10:40:22.204Z,2.20
2023-04-30T10:42:50.539Z,2.20
2023-04-30T10:45:20.263Z,1.70
2023-04-30T10:47:48.038Z,2.50
2023-04-30T10:50:15.780Z,2.80
2023-04-30T10:52:44.296Z,1.80
2023-04-30T10:55:17.195Z,2.10
2023-04-30T10:57:46.724Z,1.70
2023-04-30T11:00:25.731Z,1.80
2023-04-30T11:03:04.119Z,2.30
2023-04-30T11:05:39.160Z,2.20
2023-04-30T11:08:11.299Z,2.10
2023-04-30T11:10:47.665Z,3.30
2023-04-30T11:13:16.379Z,2.50
2023-04-30T11:15:45.902Z,2.20
2023-04-30T11:18:13.911Z,2.50
2023-04-30T11:20:44.479Z,2.50
2023-04-30T11:23:22.104Z,2.60
2023-04-30T11:26:01.039Z,2.90
2023-04-30T11:28:29.084Z,2.20
2023-04-30T11:30:58.564Z,2.30
2023-04-30T11:33:28.510Z,2.50
2023-04-30T11:35:58.098Z,2.10
2023-04-30T11:38:27.833Z,2.40
2023-04-30T11:40:57.177Z,2.20
2023-04-30T11:43:27.462Z,2.00
2023-04-30T11:46:00.528Z,2.40
2023-04-30T11:48:35.739Z,2.60
2023-04-30T11:51:05.225Z,2.50
2023-04-30T11:53:33.185Z,2.60
2023-04-30T11:56:04.225Z,2.70
2023-04-30T11:58:39.270Z,2.50
2023-04-30T12:01:09.719Z,2.40
2023-04-30T12:03:48.658Z,2.60
2023-04-30T12:06:23.975Z,2.30
2023-04-30T12:09:01.201Z,2.30
2023-04-30T12:11:30.513Z,2.80
2023-04-30T12:14:03.445Z,2.40
2023-04-30T12:16:41.267Z,2.50
2023-04-30T12:19:09.748Z,2.20
2023-04-30T12:21:38.811Z,2.30
2023-04-30T12:24:07.303Z,2.10
2023-04-30T12:26:40.247Z,2.70
2023-04-30T12:29:15.891Z,3.00
2023-04-30T12:31:44.436Z,2.80
2023-04-30T12:34:14.938Z,3.00
2023-04-30T12:36:43.058Z,3.10
2023-04-30T12:39:18.190Z,3.40
2023-04-30T12:41:47.779Z,17.00
2023-04-30T12:44:16.312Z,3.40
2023-04-30T12:46:46.618Z,3.10
2023-04-30T12:49:33.321Z,2.90
2023-04-30T12:52:12.412Z,3.30
2023-04-30T12:54:40.234Z,3.20
2023-04-30T12:57:12.630Z,3.30
2023-04-30T12:59:49.442Z,3.60
2023-04-30T13:02:17.103Z,4.00
2023-04-30T13:04:44.891Z,3.70
2023-04-30T13:07:12.641Z,2.80
2023-04-30T13:09:40.812Z,3.10
2023-04-30T13:12:08.669Z,3.30
2023-04-30T13:14:36.664Z,3.90
2023-04-30T13:17:07.023Z,3.20
2023-04-30T13:19:35.278Z,3.30
2023-04-30T13:22:03.003Z,3.60
2023-04-30T13:24:31.318Z,3.10
2023-04-30T13:26:59.840Z,2.90
2023-04-30T13:29:27.864Z,3.70
2023-04-30T13:31:55.925Z,2.80
2023-04-30T13:34:23.851Z,3.40
2023-04-30T13:36:53.533Z,3.10
2023-04-30T13:39:21.998Z,3.40
2023-04-30T13:41:49.742Z,3.00
2023-04-30T13:44:17.437Z,3.10
2023-04-30T13:46:45.472Z,3.00
2023-04-30T13:49:13.266Z,3.30
2023-04-30T13:51:41.048Z,2.80
2023-04-30T13:54:08.646Z,2.80
2023-04-30T13:56:36.315Z,2.90
2023-04-30T13:59:04.161Z,3.60
2023-04-30T14:01:33.056Z,2.60
2023-04-30T14:04:02.010Z,2.50
2023-04-30T14:06:30.517Z,2.80
2023-04-30T14:08:58.252Z,3.30
2023-04-30T14:11:27.396Z,2.80
2023-04-30T14:13:55.292Z,2.70
2023-04-30T14:16:23.023Z,2.80
2023-04-30T14:18:50.778Z,2.70
2023-04-30T14:21:18.440Z,3.60
2023-04-30T14:23:47.176Z,2.60
2023-04-30T14:26:14.873Z,3.40
2023-04-30T14:28:42.657Z,2.80
2023-04-30T14:31:10.678Z,2.70
2023-04-30T14:33:38.477Z,2.90
2023-04-30T14:36:06.870Z,2.90
2023-04-30T14:38:34.524Z,4.10
2023-04-30T14:41:02.129Z,3.30
2023-04-30T14:43:29.731Z,2.30
2023-04-30T14:45:57.642Z,2.80
2023-04-30T14:48:25.273Z,2.60
2023-04-30T14:50:53.228Z,2.50
2023-04-30T14:53:20.828Z,2.60
2023-04-30T14:55:48.903Z,2.90
2023-04-30T14:58:16.599Z,3.00
2023-04-30T15:00:44.214Z,3.50
2023-04-30T15:03:11.972Z,3.60
2023-04-30T15:05:43.187Z,3.40
2023-04-30T15:08:10.784Z,3.00
2023-04-30T15:10:38.436Z,2.70
2023-04-30T15:13:06.225Z,3.10
2023-04-30T15:15:33.961Z,2.80
2023-04-30T15:18:03.970Z,3.40
2023-04-30T15:20:31.778Z,3.30
2023-04-30T15:23:00.061Z,3.30
2023-04-30T15:25:27.752Z,3.00
2023-04-30T15:27:55.363Z,3.30
2023-04-30T15:30:22.980Z,3.20
2023-04-30T15:32:51.190Z,3.40
2023-04-30T15:35:18.978Z,3.20
2023-04-30T15:37:46.647Z,3.30
2023-04-30T15:40:15.869Z,3.20
2023-04-30T15:42:43.975Z,3.00
2023-04-30T15:45:11.737Z,3.10
2023-04-30T15:47:39.649Z,3.40
2023-04-30T15:50:08.311Z,3.10
2023-04-30T15:52:37.670Z,3.70
2023-04-30T15:55:08.602Z,3.30
2023-04-30T15:57:36.381Z,3.80
2023-04-30T16:00:05.201Z,3.20
2023-04-30T16:02:39.729Z,3.50
2023-04-30T16:05:07.741Z,3.10
2023-04-30T16:07:35.466Z,3.20
2023-04-30T16:10:03.418Z,3.30
2023-04-30T16:12:31.043Z,3.60
2023-04-30T16:14:58.716Z,3.10
2023-04-30T16:17:26.754Z,3.10
2023-04-30T16:19:54.634Z,3.40
2023-04-30T16:22:22.932Z,3.60
2023-04-30T16:24:50.567Z,3.20
2023-04-30T16:27:18.157Z,3.60
2023-04-30T16:29:45.784Z,3.60
2023-04-30T16:32:13.662Z,3.90
2023-04-30T16:34:41.804Z,4.00
2023-04-30T16:37:09.550Z,3.80
2023-04-30T16:39:37.231Z,3.30
2023-04-30T16:42:05.746Z,3.80
2023-04-30T16:44:33.344Z,4.00
2023-04-30T16:47:01.024Z,3.70
2023-04-30T16:49:28.629Z,3.60
2023-04-30T16:51:56.387Z,4.30
2023-04-30T16:54:24.164Z,3.90
2023-04-30T16:56:51.994Z,3.60
2023-04-30T16:59:19.857Z,5.60
2023-04-30T17:01:47.503Z,5.20
2023-04-30T17:04:15.747Z,4.50
2023-04-30T17:06:43.540Z,6.90
2023-04-30T17:09:11.526Z,5.60
2023-04-30T17:11:39.143Z,6.70
2023-04-30T17:14:06.929Z,5.60
2023-04-30T17:16:34.535Z,3.70
2023-04-30T17:19:02.297Z,3.80
2023-04-30T17:21:30.153Z,7.30
2023-04-30T17:23:58.548Z,16.90
2023-04-30T17:26:26.822Z,17.40
2023-04-30T17:28:54.498Z,14.00
2023-04-30T17:31:22.356Z,12.40
2023-04-30T17:33:50.104Z,11.70
2023-04-30T17:36:18.385Z,9.30
2023-04-30T17:38:46.010Z,14.50
2023-04-30T17:41:13.682Z,7.80
2023-04-30T17:43:41.317Z,10.40
2023-04-30T17:46:09.832Z,9.30
2023-04-30T17:48:38.696Z,6.70
2023-04-30T17:51:11.601Z,5.30
2023-04-30T17:53:39.524Z,5.70
2023-04-30T17:56:08.725Z,5.80
2023-04-30T17:58:38.447Z,4.90
2023-04-30T18:01:07.850Z,4.60
2023-04-30T18:03:36.341Z,4.60
2023-04-30T18:06:04.270Z,5.10
2023-04-30T18:08:32.666Z,4.70
2023-04-30T18:11:03.012Z,4.20
2023-04-30T18:13:31.093Z,4.60
2023-04-30T18:15:58.771Z,4.90
2023-04-30T18:18:26.561Z,5.30
2023-04-30T18:20:54.185Z,4.90
2023-04-30T18:23:22.320Z,5.90
2023-04-30T18:25:50.012Z,7.00
2023-04-30T18:28:18.509Z,7.10
2023-04-30T18:30:46.236Z,7.90
2023-04-30T18:33:14.118Z,8.50
2023-04-30T18:35:41.918Z,8.00
2023-04-30T18:38:09.700Z,9.20
2023-04-30T18:40:37.325Z,9.60
2023-04-30T18:43:05.343Z,8.90
2023-04-30T18:45:32.958Z,10.00
2023-04-30T18:48:01.036Z,11.10
2023-04-30T18:50:28.845Z,12.00
2023-04-30T18:52:56.545Z,13.00
2023-04-30T18:55:24.204Z,13.40
2023-04-30T18:57:52.444Z,14.10
2023-04-30T19:00:20.098Z,11.80
2023-04-30T19:02:48.266Z,11.70
2023-04-30T19:05:16.375Z,10.90
2023-04-30T19:07:44.638Z,10.00
2023-04-30T19:10:12.481Z,13.50
2023-04-30T19:12:40.699Z,20.70
2023-04-30T19:15:11.582Z,16.10
2023-04-30T19:17:40.064Z,13.90
2023-04-30T19:20:08.877Z,13.30
2023-04-30T19:22:36.528Z,13.40
2023-04-30T19:25:04.978Z,16.60
2023-04-30T19:27:32.631Z,13.40
2023-04-30T19:30:00.290Z,13.80
2023-04-30T19:32:28.164Z,12.40
2023-04-30T19:34:55.989Z,11.00
2023-04-30T19:37:25.125Z,11.20
2023-04-30T19:39:52.858Z,9.80
2023-04-30T19:42:20.658Z,14.40
2023-04-30T19:44:52.133Z,22.40
2023-04-30T19:47:19.825Z,16.50
2023-04-30T19:49:47.611Z,22.00
2023-04-30T19:52:15.854Z,23.40
2023-04-30T19:54:48.404Z,25.50
2023-04-30T19:57:19.174Z,25.70
2023-04-30T19:59:47.394Z,22.20
2023-04-30T20:02:15.470Z,19.70
2023-04-30T20:04:43.513Z,13.80
2023-04-30T20:07:11.355Z,12.30
2023-04-30T20:09:39.023Z,11.80
2023-04-30T20:12:06.707Z,11.60
2023-04-30T20:14:34.405Z,11.40
2023-04-30T20:17:02.646Z,11.40
2023-04-30T20:19:30.278Z,12.70
2023-04-30T20:21:57.911Z,13.80
2023-04-30T20:24:25.529Z,13.50
2023-04-30T20:26:53.618Z,12.10
2023-04-30T20:29:23.329Z,12.60
2023-04-30T20:31:51.851Z,12.10
2023-04-30T20:34:19.655Z,11.20
2023-04-30T20:36:47.401Z,10.90
2023-04-30T20:39:15.825Z,11.40
2023-04-30T20:41:47.908Z,11.60
2023-04-30T20:44:15.903Z,11.40
2023-04-30T20:46:43.541Z,12.30
2023-04-30T20:49:12.325Z,12.20
2023-04-30T20:51:40.198Z,12.00
2023-04-30T20:54:09.408Z,11.90
2023-04-30T20:56:37.143Z,12.70
2023-04-30T20:59:05.872Z,12.60
2023-04-30T21:01:33.788Z,12.60
2023-04-30T21:04:02.311Z,12.70
2023-04-30T21:06:32.083Z,12.70
2023-04-30T21:08:59.996Z,12.80
2023-04-30T21:11:28.807Z,12.20
2023-04-30T21:13:57.785Z,11.80
2023-04-30T21:16:27.999Z,12.90
2023-04-30T21:18:55.887Z,12.30
2023-04-30T21:21:23.782Z,12.20
2023-04-30T21:23:51.560Z,11.60
2023-04-30T21:26:19.503Z,13.10
2023-04-30T21:28:47.775Z,11.30
2023-04-30T21:31:15.959Z,12.40
2023-04-30T21:33:43.720Z,12.30
2023-04-30T21:36:11.561Z,13.00
2023-04-30T21:38:39.151Z,17.90
2023-04-30T21:41:07.031Z,18.10
2023-04-30T21:43:35.108Z,31.70
2023-04-30T21:46:03.282Z,27.90
2023-04-30T21:48:31.060Z,23.90
2023-04-30T21:50:58.693Z,21.80
2023-04-30T21:53:26.890Z,21.80
2023-04-30T21:55:54.508Z,16.70
2023-04-30T21:58:22.113Z,14.80
2023-04-30T22:00:49.724Z,14.00
2023-04-30T22:03:17.538Z,16.50
2023-04-30T22:05:46.382Z,19.30
2023-04-30T22:08:14.015Z,15.90
2023-04-30T22:10:41.872Z,14.80
2023-04-30T22:13:09.508Z,13.50
2023-04-30T22:15:47.213Z,14.10
2023-04-30T22:18:15.985Z,13.50
2023-04-30T22:20:43.678Z,14.50
2023-04-30T22:23:11.677Z,15.50
2023-04-30T22:25:39.362Z,14.80
2023-04-30T22:28:07.078Z,12.30
2023-04-30T22:30:34.667Z,12.30
2023-04-30T22:33:02.903Z,12.30
2023-04-30T22:35:31.044Z,12.00
2023-04-30T22:37:59.225Z,11.20
2023-04-30T22:40:26.995Z,11.60
2023-04-30T22:42:54.940Z,12.70
2023-04-30T22:45:23.025Z,12.10
2023-04-30T22:47:52.723Z,11.90
2023-04-30T22:50:20.608Z,11.50
2023-04-30T22:52:49.086Z,11.70
2023-04-30T22:55:16.874Z,10.60
2023-04-30T22:57:44.475Z,11.70
2023-04-30T23:00:12.894Z,11.30
2023-04-30T23:02:40.513Z,10.80
2023-04-30T23:05:08.606Z,9.90
2023-04-30T23:07:36.211Z,10.30
2023-04-30T23:10:06.121Z,11.30
2023-04-30T23:12:35.651Z,13.20
2023-04-30T23:15:03.982Z,12.60
2023-04-30T23:17:31.734Z,12.40
2023-04-30T23:19:59.454Z,12.90
2023-04-30T23:22:27.331Z,12.00
2023-04-30T23:24:57.168Z,12.80
2023-04-30T23:27:28.230Z,9.80
2023-04-30T23:29:56.589Z,9.10
2023-04-30T23:32:24.842Z,9.70
2023-04-30T23:34:52.816Z,10.50
2023-04-30T23:37:20.599Z,9.90
2023-04-30T23:39:48.227Z,11.20
2023-04-30T23:42:15.887Z,10.60
2023-04-30T23:44:43.589Z,10.60
2023-04-30T23:47:12.423Z,10.00
2023-04-30T23:49:40.133Z,9.80
2023-04-30T23:52:07.866Z,11.90
2023-04-30T23:54:35.465Z,11.60
2023-04-30T23:57:03.252Z,11.00
2023-04-30T23:59:30.889Z,11.60
